KADM/ADM METAR and TAF weather

Enter ICAO airport designator
Station Type Date Time Source
KADM METAR 2018/07/21 22:35 UTC NOAA

KADM 212235Z AUTO 27007KT 10SM CLR 44/14 A2985 RMK AO2 T04360143


Station Type Date Time Source
KADM Decoded METAR 2018/07/21 22:35 UTC NOAA

Ardmore, Ardmore Municipal Airport, OK, United States (KADM) 34-18-11N 097-01-10W
Jul 21, 2018 - 06:35 PM EDT / 2018.07.21 2235 UTC
Wind: from the W (270 degrees) at 8 MPH (7 KT):0
Visibility: 10 mile(s):0
Sky conditions: clear
Temperature: 110.5 F (43.6 C)
Heat index: 111.0 F (43.9 C):1
Dew Point: 57.7 F (14.3 C)
Relative Humidity: 18%
Pressure (altimeter): 29.85 in. Hg (1010 hPa)
ob: KADM 212235Z AUTO 27007KT 10SM CLR 44/14 A2985 RMK AO2 T04360143
cycle: 22

Station Type Date Time Source
KADM TAF UTC NOAA

Error!


Example: see airport list